Time;durP1;ratioP1;P1;durP2;ratioP2;P2;SDS_P1;SDS_P2;PMS_P1;PMS_P2;Temp;Humidity;BMP_temperature;BMP_pressure;BME280_temperature;BME280_humidity;BME280_pressure;Samples;Min_cycle;Max_cycle;Signal;HPM_P1;HPM_P2
2023/04/02 00:01:22;;;;;;;28.60;25.30;;;;;;;7.28;100.00;99397.39;181224;1260;88145;-75
2023/04/02 00:55:47;;;;;;;24.50;20.70;;;;;;;6.39;100.00;99464.38;181008;1263;44046;-91
2023/04/02 02:17:33;;;;;;;36.30;26.10;;;;;;;5.73;100.00;99592.27;179141;1260;58651;31
2023/04/02 02:27:12;;;;;;;23.90;20.10;;;;;;;5.52;100.00;99612.20;181137;1255;44167;31
2023/04/02 03:07:36;;;;;;;28.10;22.60;;;;;;;5.12;100.00;99685.14;179960;1257;58166;31
2023/04/02 04:27:02;;;;;;;40.50;28.90;;;;;;;4.06;100.00;99827.04;179757;1257;45136;31
2023/04/02 04:52:08;;;;;;;;;;;;;;;;;;;;;
2023/04/02 05:37:01;;;;;;;28.80;21.40;;;;;;;4.85;100.00;99942.46;181318;1255;58166;31
2023/04/02 05:46:36;;;;;;;24.30;18.90;;;;;;;4.78;100.00;99963.63;151501;1265;44715;-90
2023/04/02 05:50:44;;;;;;;20.40;18.20;;;;;;;4.76;100.00;99970.08;180572;1265;43864;-90
2023/04/02 05:55:10;;;;;;;22.00;18.00;;;;;;;4.76;100.00;99976.92;180682;1265;43747;-89
2023/04/02 05:59:21;;;;;;;28.80;18.50;;;;;;;4.80;100.00;99979.68;180577;1265;59810;-89
2023/04/02 06:03:37;;;;;;;17.70;16.10;;;;;;;4.91;100.00;99983.75;180532;1265;44027;-89
2023/04/02 06:07:46;;;;;;;21.30;16.80;;;;;;;4.91;100.00;99989.85;180450;1265;43871;-89
2023/04/02 06:11:59;;;;;;;20.00;16.10;;;;;;;4.93;100.00;99989.23;180506;1265;44106;-89
2023/04/02 06:16:03;;;;;;;20.60;16.60;;;;;;;4.86;100.00;99997.35;180463;1264;44111;-89
2023/04/02 06:20:08;;;;;;;16.30;13.40;;;;;;;4.81;100.00;100005.92;180665;1265;60622;-89
2023/04/02 06:24:16;;;;;;;23.00;16.40;;;;;;;4.76;100.00;100015.57;180335;1265;44051;-89
2023/04/02 06:28:25;;;;;;;17.20;14.10;;;;;;;4.76;100.00;100022.80;180431;1266;44123;-89
2023/04/02 06:32:30;;;;;;;19.50;15.90;;;;;;;4.78;100.00;100028.98;180643;1265;43771;-90
2023/04/02 06:36:36;;;;;;;30.10;20.30;;;;;;;4.79;100.00;100033.64;180463;1265;44083;-88
2023/04/02 06:40:48;;;;;;;18.90;17.10;;;;;;;4.83;100.00;100039.20;180500;1265;59657;-89
2023/04/02 06:44:52;;;;;;;22.50;20.10;;;;;;;4.88;100.00;100047.88;180655;1265;44138;-89
2023/04/02 06:49:20;;;;;;;16.80;15.00;;;;;;;4.87;100.00;100060.20;180555;1265;44086;-89
2023/04/02 06:53:30;;;;;;;19.90;17.70;;;;;;;4.81;100.00;100064.10;179593;1272;43988;-90
2023/04/02 06:57:34;;;;;;;15.90;14.40;;;;;;;4.79;100.00;100070.59;179325;1273;43999;-89
2023/04/02 07:01:44;;;;;;;18.60;16.70;;;;;;;4.75;100.00;100075.05;179353;1272;59622;-89
2023/04/02 07:05:47;;;;;;;17.00;15.10;;;;;;;4.76;100.00;100085.64;179448;1270;44929;-89
2023/04/02 07:09:50;;;;;;;21.60;19.30;;;;;;;4.76;100.00;100088.66;179670;1270;44160;-89
2023/04/02 07:13:53;;;;;;;20.30;16.00;;;;;;;4.75;100.00;100094.69;179520;1270;44111;-89
2023/04/02 07:17:58;;;;;;;18.20;16.60;;;;;;;4.79;100.00;100097.28;179596;1271;43808;-89
2023/04/02 07:22:01;;;;;;;14.60;13.20;;;;;;;4.81;100.00;100103.45;179553;1271;58970;-89
2023/04/02 07:26:06;;;;;;;15.30;12.90;;;;;;;4.78;100.00;100107.35;179350;1270;45482;-89
2023/04/02 07:30:09;;;;;;;16.70;13.50;;;;;;;4.75;100.00;100116.52;179779;1264;44269;-88
2023/04/02 07:34:12;;;;;;;15.60;12.30;;;;;;;4.68;100.00;100127.23;180497;1265;44067;-88
2023/04/02 07:38:16;;;;;;;12.80;11.40;;;;;;;4.63;100.00;100133.14;180494;1265;44085;-88
2023/04/02 07:42:19;;;;;;;14.00;12.00;;;;;;;4.61;100.00;100141.14;180514;1265;57208;-88
2023/04/02 07:46:23;;;;;;;14.30;11.20;;;;;;;4.57;100.00;100145.81;180573;1265;43958;-89
2023/04/02 07:50:27;;;;;;;10.90;9.20;;;;;;;4.48;100.00;100154.91;180473;1265;43855;-88
2023/04/02 07:54:30;;;;;;;10.70;9.60;;;;;;;4.37;100.00;100167.14;180504;1266;43742;-89
2023/04/02 07:58:33;;;;;;;8.70;7.00;;;;;;;4.39;100.00;100177.02;180498;1265;43877;-86
2023/04/02 08:02:36;;;;;;;11.20;9.70;;;;;;;4.38;100.00;100186.91;180122;1266;235672;-86
2023/04/02 08:06:40;;;;;;;10.50;8.30;;;;;;;4.36;100.00;100201.25;180436;1265;44047;-87
2023/04/02 08:10:43;;;;;;;7.40;6.30;;;;;;;4.27;100.00;100214.41;180620;1265;44078;-87
2023/04/02 08:14:46;;;;;;;7.80;7.00;;;;;;;4.32;100.00;100210.80;180533;1266;44026;-87
2023/04/02 08:18:49;;;;;;;8.30;6.40;;;;;;;4.35;100.00;100217.28;180595;1265;43830;-87
2023/04/02 08:22:52;;;;;;;8.80;8.00;;;;;;;4.46;100.00;100222.81;180478;1265;60139;-87
2023/04/02 08:26:56;;;;;;;7.40;6.70;;;;;;;4.47;100.00;100228.94;180494;1266;43857;-87
2023/04/02 08:30:59;;;;;;;8.00;6.50;;;;;;;4.50;100.00;100231.02;180601;1265;44197;-87
2023/04/02 08:35:03;;;;;;;6.70;6.10;;;;;;;4.57;100.00;100237.31;180585;1265;44038;-87
2023/04/02 08:39:10;;;;;;;5.90;5.40;;;;;;;4.63;100.00;100240.13;180486;1265;43863;-87
2023/04/02 08:43:17;;;;;;;7.90;7.10;;;;;;;4.68;100.00;100245.82;180512;1265;57762;-87
2023/04/02 08:47:24;;;;;;;7.90;7.20;;;;;;;4.72;100.00;100249.45;180558;1265;44008;-87
2023/04/02 08:51:33;;;;;;;7.10;6.10;;;;;;;4.78;100.00;100258.39;180560;1266;44199;-87
2023/04/02 08:55:48;;;;;;;10.00;9.00;;;;;;;4.81;100.00;100254.94;180603;1265;43806;-87
2023/04/02 08:59:59;;;;;;;6.60;5.80;;;;;;;4.89;100.00;100258.65;180376;1266;44142;-88
2023/04/02 09:04:12;;;;;;;12.50;8.10;;;;;;;5.08;100.00;100262.13;180520;1266;58293;-87
2023/04/02 09:08:24;;;;;;;12.20;7.50;;;;;;;5.22;100.00;100261.84;180455;1265;44391;-87
2023/04/02 09:12:30;;;;;;;8.90;7.80;;;;;;;5.23;100.00;100262.27;180581;1265;44014;-87
2023/04/02 09:16:42;;;;;;;9.80;8.00;;;;;;;5.31;100.00;100270.11;180556;1266;44251;-88
2023/04/02 09:20:47;;;;;;;6.90;6.20;;;;;;;5.33;100.00;100276.33;180545;1266;44140;-88
2023/04/02 09:24:56;;;;;;;11.90;10.70;;;;;;;5.31;100.00;100281.52;180494;1265;60166;-88
2023/04/02 09:29:11;;;;;;;6.60;5.90;;;;;;;5.16;99.80;100281.90;180619;1265;43720;-87
2023/04/02 09:33:14;;;;;;;7.50;6.30;;;;;;;5.06;100.00;100287.77;180658;1265;43756;-88
2023/04/02 09:37:24;;;;;;;8.40;7.70;;;;;;;4.99;100.00;100295.17;180412;1265;44230;-89
2023/04/02 09:41:29;;;;;;;7.70;7.00;;;;;;;5.03;100.00;100311.11;180530;1265;43824;-88
2023/04/02 09:45:33;;;;;;;7.50;6.90;;;;;;;5.02;100.00;100313.66;180473;1267;60950;-89
2023/04/02 09:49:38;;;;;;;8.00;6.40;;;;;;;4.86;100.00;100316.86;180574;1265;44039;-88
2023/04/02 09:53:45;;;;;;;10.90;7.30;;;;;;;4.94;100.00;100325.48;180365;1266;43882;-89
2023/04/02 09:57:49;;;;;;;9.10;8.00;;;;;;;5.00;100.00;100327.98;180449;1266;44498;-88
2023/04/02 10:01:52;;;;;;;9.70;7.50;;;;;;;4.99;100.00;100331.05;180407;1265;44303;-88
2023/04/02 10:06:10;;;;;;;6.30;5.50;;;;;;;5.05;100.00;100335.12;180527;1267;57960;-88
2023/04/02 10:10:35;;;;;;;6.00;4.80;;;;;;;5.11;100.00;100349.14;180540;1265;44317;-89
2023/04/02 10:14:48;;;;;;;6.70;5.80;;;;;;;5.10;100.00;100354.30;180379;1266;44064;-88
2023/04/02 10:18:55;;;;;;;8.30;7.40;;;;;;;5.17;99.69;100356.71;180519;1265;43775;-88
2023/04/02 10:22:58;;;;;;;10.00;6.90;;;;;;;5.35;99.21;100360.60;180518;1266;43878;-88
2023/04/02 10:27:32;;;;;;;8.30;5.80;;;;;;;5.51;98.78;100365.48;180493;1266;59603;-89
2023/04/02 10:31:42;;;;;;;5.70;5.00;;;;;;;5.50;99.34;100373.30;180474;1266;44127;-88
2023/04/02 10:35:52;;;;;;;5.80;5.30;;;;;;;5.32;98.45;100383.81;180522;1266;43972;-87
2023/04/02 10:40:33;;;;;;;6.60;4.60;;;;;;;5.20;98.17;100398.23;180499;1266;44118;-88
2023/04/02 10:44:48;;;;;;;6.10;4.20;;;;;;;5.08;97.97;100397.48;180365;1266;44971;-88
2023/04/02 10:49:13;;;;;;;6.80;5.50;;;;;;;5.09;98.23;100402.33;180601;1266;58328;-88
2023/04/02 10:53:21;;;;;;;5.50;4.90;;;;;;;5.17;99.47;100401.91;180667;1265;43794;-89
2023/04/02 10:57:28;;;;;;;15.70;6.80;;;;;;;5.21;98.29;100404.11;180548;1265;43778;-88
2023/04/02 11:01:34;;;;;;;6.40;5.30;;;;;;;5.23;98.04;100409.79;180433;1265;43871;-88
2023/04/02 11:05:50;;;;;;;6.60;4.90;;;;;;;5.23;96.36;100409.79;180565;1265;43847;-89
2023/04/02 11:10:00;;;;;;;7.30;5.20;;;;;;;5.23;96.67;100411.41;180636;1265;58961;-92
2023/04/02 11:14:14;;;;;;;7.20;5.20;;;;;;;5.28;96.14;100419.36;180780;1265;44141;-89
2023/04/02 11:18:35;;;;;;;4.50;4.10;;;;;;;5.31;95.20;100421.35;180706;1265;43884;-90
2023/04/02 11:37:06;;;;;;;9.50;5.40;;;;;;;5.33;92.97;100460.79;180908;1264;44234;-91
2023/04/02 11:45:55;;;;;;;8.20;4.90;;;;;;;5.39;93.30;100464.31;180983;1265;44311;-89
2023/04/02 11:54:40;;;;;;;7.40;6.70;;;;;;;5.65;94.78;100476.73;164282;1257;57920;-87
2023/04/02 12:04:12;;;;;;;14.00;6.20;;;;;;;5.62;92.87;100488.73;162368;1260;46310;31
2023/04/02 12:13:04;;;;;;;6.20;5.70;;;;;;;5.70;94.07;100501.61;181036;1261;44030;-89
2023/04/02 12:21:37;;;;;;;9.90;7.00;;;;;;;5.97;92.54;100509.90;179062;1262;43801;-88
2023/04/02 12:25:52;;;;;;;9.30;5.70;;;;;;;6.08;90.57;100512.45;181120;1264;44190;-90
2023/04/02 12:30:33;;;;;;;8.70;6.00;;;;;;;6.14;90.83;100515.99;181027;1262;43872;-89
2023/04/02 12:34:53;;;;;;;13.50;6.30;;;;;;;6.20;90.34;100524.93;180997;1262;44226;-90
2023/04/02 12:43:26;;;;;;;6.30;5.70;;;;;;;6.22;91.68;100528.22;179164;1261;43882;-91
2023/04/02 12:52:18;;;;;;;4.80;4.20;;;;;;;6.30;90.61;100531.26;177635;1256;45858;-89
2023/04/02 12:56:36;;;;;;;10.20;6.90;;;;;;;6.17;90.41;100533.98;181070;1257;45015;-88
2023/04/02 13:01:30;;;;;;;;;;;;;;;;;;;;;
2023/04/02 13:10:22;;;;;;;5.10;4.60;;;;;;;5.97;90.82;100543.34;180456;1264;44137;-90
2023/04/02 13:14:25;;;;;;;13.00;5.20;;;;;;;6.05;93.16;100546.28;180675;1265;44241;-86
2023/04/02 13:18:31;;;;;;;8.10;5.40;;;;;;;5.93;91.55;100549.23;180719;1264;44033;-90
2023/04/02 13:31:37;;;;;;;6.10;5.10;;;;;;;5.76;93.88;100559.33;156207;1260;44697;-89
2023/04/02 13:35:46;;;;;;;7.20;5.30;;;;;;;5.77;95.09;100562.61;181034;1262;44005;-89
2023/04/02 13:44:36;;;;;;;10.80;6.20;;;;;;;5.81;94.22;100567.48;180743;1267;58606;-91
2023/04/02 13:57:45;;;;;;;7.50;4.80;;;;;;;6.04;96.31;100579.61;180787;1267;44423;-89
2023/04/02 14:11:51;;;;;;;8.30;4.90;;;;;;;6.12;93.75;100581.06;180806;1266;43900;-88
2023/04/02 14:16:15;;;;;;;5.50;4.70;;;;;;;6.17;94.02;100580.10;180817;1265;44796;-90
2023/04/02 14:20:41;;;;;;;4.90;3.20;;;;;;;6.22;92.64;100585.80;180738;1265;43932;-89
2023/04/02 14:25:10;;;;;;;7.30;4.50;;;;;;;6.14;92.81;100592.75;180853;1265;43758;-90
2023/04/02 14:39:17;;;;;;;6.30;4.30;;;;;;;6.25;93.26;100613.09;180959;1262;44200;-86
2023/04/02 14:52:43;;;;;;;5.50;2.90;;;;;;;6.24;94.74;100623.02;180882;1257;58305;31
2023/04/02 15:01:46;;;;;;;5.00;3.50;;;;;;;6.19;96.05;100626.27;180938;1261;45031;-88
2023/04/02 15:10:55;;;;;;;11.40;4.90;;;;;;;6.16;96.19;100637.92;180908;1261;45218;-89
2023/04/02 15:15:15;;;;;;;7.80;4.20;;;;;;;6.16;94.63;100642.83;181019;1262;58815;-88
2023/04/02 15:19:40;;;;;;;11.80;4.30;;;;;;;6.14;95.88;100653.52;180713;1266;44260;-90
2023/04/02 15:47:44;;;;;;;8.10;6.00;;;;;;;6.25;93.59;100689.88;180879;1265;44128;-87
2023/04/02 16:03:07;;;;;;;8.50;5.50;;;;;;;6.22;92.36;100696.59;180947;1265;59572;-88
2023/04/02 16:07:52;;;;;;;10.60;8.60;;;;;;;6.33;92.78;100700.68;181035;1260;44285;-87
2023/04/02 16:12:20;;;;;;;10.30;6.50;;;;;;;6.36;93.24;100703.51;181025;1262;43850;-91
2023/04/02 16:16:37;;;;;;;11.20;5.10;;;;;;;6.37;91.89;100706.80;180979;1262;43884;-88
2023/04/02 16:20:50;;;;;;;8.50;5.90;;;;;;;6.41;89.99;100715.58;180858;1263;44134;-88
2023/04/02 16:34:23;;;;;;;6.60;4.20;;;;;;;6.40;88.97;100725.45;180992;1255;47227;31
2023/04/02 16:38:58;;;;;;;5.00;3.90;;;;;;;6.49;88.00;100734.15;180726;1258;46488;-86
2023/04/02 17:03:41;;;;;;;6.10;3.40;;;;;;;6.40;86.66;100756.80;180455;1257;45705;31
2023/04/02 17:22:24;;;;;;;7.20;4.50;;;;;;;6.31;88.88;100784.48;181072;1257;45472;31
2023/04/02 17:35:59;;;;;;;7.50;3.80;;;;;;;6.44;87.94;100798.74;180941;1265;57931;-88
2023/04/02 17:40:23;;;;;;;7.30;4.40;;;;;;;6.45;87.85;100806.98;180840;1265;48733;-88
2023/04/02 17:44:46;;;;;;;8.30;6.10;;;;;;;6.48;88.63;100815.45;180852;1265;44094;-89
2023/04/02 17:49:31;;;;;;;9.60;5.60;;;;;;;6.46;90.14;100817.48;180780;1269;43983;-91
2023/04/02 17:58:57;;;;;;;5.60;5.10;;;;;;;6.35;89.89;100833.05;180917;1263;58407;-87
2023/04/02 18:03:19;;;;;;;4.40;3.40;;;;;;;6.19;89.64;100835.17;180779;1264;44121;-88
2023/04/02 18:07:35;;;;;;;6.60;3.50;;;;;;;6.05;89.93;100838.04;180798;1263;43838;-90
2023/04/02 18:11:57;;;;;;;7.10;4.10;;;;;;;6.00;90.59;100844.43;180797;1264;43927;-86
2023/04/02 18:16:21;;;;;;;5.40;3.80;;;;;;;5.94;91.64;100847.21;180904;1264;43816;-90
2023/04/02 18:20:42;;;;;;;7.80;4.00;;;;;;;5.87;92.27;100852.30;180835;1264;59720;-90
2023/04/02 18:25:03;;;;;;;6.50;3.70;;;;;;;5.88;93.09;100857.55;180904;1262;43808;-88
2023/04/02 18:29:17;;;;;;;5.30;4.10;;;;;;;5.83;93.05;100864.13;180868;1263;45567;-90
2023/04/02 18:47:21;;;;;;;6.80;5.50;;;;;;;5.80;94.54;100891.73;180957;1264;44214;-88
2023/04/02 18:51:39;;;;;;;6.40;4.30;;;;;;;5.85;96.14;100897.62;180807;1265;43965;-90
2023/04/02 19:00:25;;;;;;;7.60;4.80;;;;;;;5.83;95.59;100911.29;180123;1263;43941;-89
2023/04/02 19:09:00;;;;;;;11.40;6.30;;;;;;;5.93;97.39;100918.93;174237;1265;44686;-89
2023/04/02 19:13:14;;;;;;;6.70;6.10;;;;;;;6.09;99.51;100923.01;180598;1265;44155;-91
2023/04/02 19:17:20;;;;;;;6.80;5.20;;;;;;;6.35;99.91;100926.41;180780;1264;44067;-90
2023/04/02 19:21:30;;;;;;;8.60;6.70;;;;;;;6.44;96.53;100935.79;180787;1265;44391;-90
2023/04/02 19:26:07;;;;;;;9.20;7.20;;;;;;;6.52;96.99;100936.45;180790;1259;60833;-85
2023/04/02 19:30:40;;;;;;;15.30;7.50;;;;;;;6.59;95.08;100942.25;180466;1264;43871;-86
2023/04/02 19:35:06;;;;;;;16.90;8.40;;;;;;;6.47;93.97;100943.77;180555;1264;44435;-86
2023/04/02 19:39:34;;;;;;;11.40;7.30;;;;;;;6.41;94.61;100948.63;180642;1265;44082;-86
2023/04/02 19:43:41;;;;;;;9.40;5.70;;;;;;;6.32;93.65;100948.96;180633;1264;43948;-86
2023/04/02 19:48:21;;;;;;;10.10;8.60;;;;;;;6.35;94.56;100957.77;180519;1264;58852;-86
2023/04/02 19:52:48;;;;;;;10.90;6.90;;;;;;;6.39;94.87;100961.23;180409;1263;43839;-86
2023/04/02 19:56:52;;;;;;;12.40;7.10;;;;;;;6.44;93.97;100962.41;180399;1264;43846;-86
2023/04/02 20:00:59;;;;;;;12.80;7.60;;;;;;;6.43;91.46;100969.13;180570;1264;43952;-85
2023/04/02 20:05:03;;;;;;;19.10;10.70;;;;;;;6.36;89.74;100974.29;176002;1264;6031274;-84
2023/04/02 20:09:07;;;;;;;14.80;9.10;;;;;;;6.30;89.28;100975.14;180673;1264;44354;-85
2023/04/02 20:13:10;;;;;;;9.60;6.60;;;;;;;6.22;88.43;100977.67;180692;1264;44260;-84
2023/04/02 20:17:14;;;;;;;9.30;5.50;;;;;;;6.09;86.64;100985.35;180664;1265;60255;-84
2023/04/02 20:21:20;;;;;;;7.80;5.30;;;;;;;5.97;84.45;100991.44;180521;1263;44268;-87
2023/04/02 20:25:26;;;;;;;8.90;5.90;;;;;;;5.86;84.73;100997.27;180421;1264;44161;-86
2023/04/02 20:29:34;;;;;;;7.20;3.60;;;;;;;5.64;79.59;101000.98;180299;1264;44378;-86
2023/04/02 20:33:56;;;;;;;7.10;3.80;;;;;;;5.50;80.05;101009.05;180194;1264;43981;-87
2023/04/02 20:38:07;;;;;;;3.90;2.80;;;;;;;5.33;74.33;101019.92;180369;1266;57953;-89
2023/04/02 20:42:24;;;;;;;5.50;2.00;;;;;;;5.19;74.93;101025.65;180319;1263;44030;-88
2023/04/02 20:46:32;;;;;;;4.80;1.80;;;;;;;5.09;77.63;101033.52;180358;1263;44010;-87
2023/04/02 20:50:47;;;;;;;8.10;3.00;;;;;;;4.93;72.74;101038.96;180276;1264;43854;-87
2023/04/02 20:54:52;;;;;;;6.20;3.00;;;;;;;4.80;73.44;101041.34;180364;1264;44248;-88
2023/04/02 20:59:02;;;;;;;5.10;2.70;;;;;;;4.65;71.32;101045.15;180209;1263;60424;-84
2023/04/02 21:03:10;;;;;;;4.30;2.90;;;;;;;4.55;72.01;101047.01;180554;1265;43749;-86
2023/04/02 21:07:14;;;;;;;6.90;2.30;;;;;;;4.46;73.18;101044.73;180594;1265;44367;-87
2023/04/02 21:11:18;;;;;;;9.20;2.40;;;;;;;4.38;73.84;101052.14;180548;1263;43718;-85
2023/04/02 21:15:21;;;;;;;5.70;2.30;;;;;;;4.30;75.78;101057.91;180664;1268;43835;-86
2023/04/02 21:19:25;;;;;;;4.30;2.10;;;;;;;4.14;74.28;101062.80;180619;1265;59385;-85
2023/04/02 21:23:29;;;;;;;3.70;2.40;;;;;;;4.03;73.60;101070.61;180713;1265;44194;-85
2023/04/02 21:27:32;;;;;;;9.50;2.30;;;;;;;3.95;73.47;101079.91;180341;1265;44211;-86
2023/04/02 21:31:38;;;;;;;3.10;2.80;;;;;;;3.86;74.42;101083.61;180656;1264;44049;-86
2023/04/02 21:35:41;;;;;;;4.90;3.10;;;;;;;3.77;74.64;101089.60;180596;1265;44060;-86
2023/04/02 21:39:44;;;;;;;3.60;2.90;;;;;;;3.68;76.02;101092.91;180574;1265;57957;-85
2023/04/02 21:43:48;;;;;;;3.60;2.40;;;;;;;3.59;76.56;101099.61;180515;1264;43801;-85
2023/04/02 21:47:51;;;;;;;2.90;2.60;;;;;;;3.48;76.84;101097.06;180442;1265;44065;-85
2023/04/02 21:51:54;;;;;;;4.10;3.40;;;;;;;3.33;76.26;101103.42;180682;1267;43756;-85
2023/04/02 21:56:11;;;;;;;6.30;3.40;;;;;;;3.28;77.30;101106.22;180611;1265;43998;-85
2023/04/02 22:00:14;;;;;;;6.70;2.20;;;;;;;3.14;76.62;101112.20;180595;1265;59393;-85
2023/04/02 22:04:23;;;;;;;4.90;2.50;;;;;;;3.00;76.99;101115.30;180693;1263;43847;-85
2023/04/02 22:08:26;;;;;;;4.90;2.60;;;;;;;2.91;76.23;101116.68;180476;1266;44524;-85
2023/04/02 22:12:29;;;;;;;3.80;2.10;;;;;;;2.82;76.14;101120.70;180599;1264;43977;-85
2023/04/02 22:16:34;;;;;;;5.40;2.00;;;;;;;2.77;76.50;101118.61;180688;1264;43959;-85
2023/04/02 22:20:38;;;;;;;3.10;1.70;;;;;;;2.72;76.38;101125.95;180456;1267;57973;-84
2023/04/02 22:24:41;;;;;;;5.30;3.10;;;;;;;2.68;78.03;101124.88;180383;1264;44046;-85
2023/04/02 22:28:44;;;;;;;5.70;2.40;;;;;;;2.63;78.99;101129.96;180479;1264;43823;-85
2023/04/02 22:32:47;;;;;;;7.80;2.90;;;;;;;2.59;79.89;101128.88;180636;1264;44296;-86
2023/04/02 22:36:51;;;;;;;6.30;3.20;;;;;;;2.49;79.86;101138.14;180636;1264;44095;-85
2023/04/02 22:41:13;;;;;;;4.10;2.80;;;;;;;2.37;79.87;101141.88;180651;1264;59781;-84
2023/04/02 22:45:17;;;;;;;3.90;1.80;;;;;;;2.30;79.89;101142.26;180566;1264;43841;-84
2023/04/02 22:49:20;;;;;;;5.70;2.40;;;;;;;2.25;80.25;101146.29;180674;1264;44219;-85
2023/04/02 22:53:23;;;;;;;6.90;3.40;;;;;;;2.20;79.75;101146.11;180658;1263;43916;-84
2023/04/02 22:57:26;;;;;;;7.30;2.40;;;;;;;2.18;80.19;101157.36;180594;1264;43979;-85
2023/04/02 23:01:32;;;;;;;4.80;2.10;;;;;;;2.15;80.60;101157.64;180604;1264;57936;-85
2023/04/02 23:05:36;;;;;;;5.20;2.80;;;;;;;2.13;80.87;101162.95;180480;1263;43775;-85
2023/04/02 23:09:39;;;;;;;7.20;3.60;;;;;;;2.11;80.78;101161.60;180739;1263;43759;-85
2023/04/02 23:13:43;;;;;;;10.20;3.70;;;;;;;2.09;81.34;101167.10;180715;1263;43810;-85
2023/04/02 23:17:46;;;;;;;8.80;2.60;;;;;;;2.07;81.98;101171.70;180435;1264;44198;-85
2023/04/02 23:21:50;;;;;;;7.20;3.60;;;;;;;2.04;81.14;101175.66;180733;1263;59328;-85
2023/04/02 23:26:14;;;;;;;10.10;4.00;;;;;;;2.01;80.77;101174.19;180585;1263;44084;-85
2023/04/02 23:30:17;;;;;;;4.20;2.70;;;;;;;1.99;80.92;101177.05;180694;1264;44164;-85
2023/04/02 23:34:20;;;;;;;7.00;3.10;;;;;;;1.96;80.85;101179.23;180769;1264;44307;-85
2023/04/02 23:38:24;;;;;;;6.90;3.20;;;;;;;1.98;81.48;101185.65;180713;1263;43779;-85
2023/04/02 23:42:27;;;;;;;4.60;2.90;;;;;;;1.96;81.73;101185.53;180678;1264;59619;-85
2023/04/02 23:46:31;;;;;;;9.70;4.50;;;;;;;1.91;82.42;101185.86;180569;1264;44093;-85
2023/04/02 23:50:34;;;;;;;13.20;6.20;;;;;;;1.88;82.68;101189.14;180521;1264;43921;-84
2023/04/02 23:54:37;;;;;;;18.30;5.20;;;;;;;1.89;82.70;101193.98;180633;1263;44019;-85
2023/04/02 23:58:40;;;;;;;6.40;3.40;;;;;;;1.87;81.90;101188.46;180654;1263;43998;-85
